San Jose, Costa Rica

6:53 PM CST on September 25, 2016 (GMT -0600)
| | Change Station

Elev -9999 ft 0.00 °N, 0.00 °E | Updated

Mostly Cloudy
Mostly Cloudy
69 °F
Feels Like 69 °F
N
3
Wind Variable Wind from East
Gusts mph

Today
High -- | Low -- °F
--% Chance of Precip.
Yesterday
High -- | Low -- °F
Precip. -- in
Pressure 30.01 in
Visibility 3.1 miles
Clouds Mostly Cloudy 400 ft
Dew Point 66 °F
Humidity 90%
Rainfall --
Snow Depth Not available.
5:25 AM 5:30 PM
Waning Crescent, 23% visible
METAR MRPV 260000Z 29004KT 5000 BR BKN004 21/19 A3001 NOSIG
Pressure 30.01 in
Visibility 3.1 miles
Clouds Mostly Cloudy 400 ft
Dew Point 66 °F
Humidity 90%
Rainfall --
Snow Depth Not available.
5:25 AM 5:30 PM
Waning Crescent, 23% visible
METAR MRPV 260000Z 29004KT 5000 BR BKN004 21/19 A3001 NOSIG

10-Day Weather Forecast

No radar image for this location.
×

Almanac

Astronomy

Sep. 25, 2016 Rise Set
Actual Time
Civil Twilight
Nautical Twilight
Astronomical Twilight
Moon
Length of Visible Light
Length of Day
Tomorrow will be .
, % of the Moon is Illuminated

Today's Extremes

Country Highs Country Lows

Community

WunderPhotos

Upload Photos

1,941,797 photos uploaded!

WunderBlog® & News

Nearby

Air Quality

  Air Quality AQ Index Pollutant
Not available.

Snow Depth

Station Depth Elevation

Earthquake Activity

City Distance Mag. Time & Date
Minimum magnitude displayed is 2.5.

Coastal Water Temperatures

Place Temperature

Stations

Nearby Weather Stations

Station Location Temp. Windchill Dew Point Humidity Wind Precip. Elev Updated Type